createdAt,value
2018-09-17T00:00:04.870Z,100673.50
2018-09-17T00:02:33.314Z,100674.73
2018-09-17T00:05:01.867Z,100674.52
2018-09-17T00:07:30.424Z,100672.40
2018-09-17T00:09:58.906Z,100667.90
2018-09-17T00:12:27.671Z,100662.95
2018-09-17T00:14:56.186Z,100659.37
2018-09-17T00:17:24.711Z,100660.97
2018-09-17T00:19:53.350Z,100662.44
2018-09-17T00:22:21.881Z,100661.88
2018-09-17T00:24:50.362Z,100662.70
2018-09-17T00:27:18.884Z,100659.17
2018-09-17T00:29:47.398Z,100663.02
2018-09-17T00:32:15.856Z,100662.78
2018-09-17T00:34:44.387Z,100657.94
2018-09-17T00:37:12.966Z,100666.19
2018-09-17T00:39:41.471Z,100658.11
2018-09-17T00:42:10.107Z,100659.12
2018-09-17T00:44:38.614Z,100657.22
2018-09-17T00:47:07.027Z,100646.57
2018-09-17T00:49:35.623Z,100649.10
2018-09-17T00:52:04.056Z,100647.66
2018-09-17T00:54:32.534Z,100645.38
2018-09-17T00:57:01.067Z,100649.91
2018-09-17T00:59:29.480Z,100647.47
2018-09-17T01:01:58.019Z,100657.87
2018-09-17T01:04:26.530Z,100654.95
2018-09-17T01:06:55.702Z,100660.64
2018-09-17T01:09:29.395Z,100655.95
2018-09-17T01:11:57.963Z,100656.52
2018-09-17T01:14:26.478Z,100655.64
2018-09-17T01:16:55.058Z,100652.80
2018-09-17T01:19:23.521Z,100657.91
2018-09-17T01:21:52.388Z,100655.14
2018-09-17T01:24:21.259Z,100655.89
2018-09-17T01:26:49.678Z,100658.63
2018-09-17T01:29:18.142Z,100651.98
2018-09-17T01:31:46.573Z,100656.69
2018-09-17T01:34:15.095Z,100655.77
2018-09-17T01:36:43.554Z,100663.86
2018-09-17T01:39:12.939Z,100663.58
2018-09-17T01:41:41.484Z,100666.77
2018-09-17T01:44:09.975Z,100666.20
2018-09-17T01:46:38.849Z,100668.81
2018-09-17T01:49:07.375Z,100669.52
2018-09-17T01:51:35.847Z,100668.15
2018-09-17T01:54:04.367Z,100666.69
2018-09-17T01:56:32.853Z,100664.11
2018-09-17T01:59:01.263Z,100663.58
2018-09-17T02:01:30.193Z,100665.03
2018-09-17T02:03:58.747Z,100660.13
2018-09-17T02:06:27.239Z,100655.92
2018-09-17T02:08:56.065Z,100660.45
2018-09-17T02:11:24.522Z,100665.11
2018-09-17T02:13:53.198Z,100666.97
2018-09-17T02:16:21.771Z,100672.45
2018-09-17T02:18:50.254Z,100669.34
2018-09-17T02:21:18.847Z,100677.05
2018-09-17T02:23:47.314Z,100678.19
2018-09-17T02:26:15.707Z,100676.67
2018-09-17T02:28:44.202Z,100682.94
2018-09-17T02:31:12.853Z,100674.05
2018-09-17T02:33:41.271Z,100673.17
2018-09-17T02:36:09.785Z,100674.24
2018-09-17T02:38:38.243Z,100669.50
2018-09-17T02:41:06.782Z,100676.14
2018-09-17T02:43:35.274Z,100682.33
2018-09-17T02:46:03.915Z,100680.70
2018-09-17T02:48:32.458Z,100674.13
2018-09-17T02:51:00.911Z,100668.78
2018-09-17T02:53:29.502Z,100666.95
2018-09-17T02:55:57.915Z,100665.31
2018-09-17T02:58:26.306Z,100671.43
2018-09-17T03:00:54.763Z,100675.91
2018-09-17T03:03:23.242Z,100680.69
2018-09-17T03:05:53.995Z,100688.73
2018-09-17T03:08:22.407Z,100687.08
2018-09-17T03:10:50.866Z,100700.77
2018-09-17T03:13:19.377Z,100700.84
2018-09-17T03:15:55.934Z,100694.16
2018-09-17T03:18:36.982Z,100697.80
2018-09-17T03:21:06.547Z,100693.57
2018-09-17T03:23:36.359Z,100697.41
2018-09-17T03:26:05.307Z,100693.22
2018-09-17T03:28:34.079Z,100697.55
2018-09-17T03:31:02.591Z,100692.62
2018-09-17T03:33:31.034Z,100691.16
2018-09-17T03:35:59.522Z,100691.92
2018-09-17T03:38:38.408Z,100695.56
2018-09-17T03:41:07.994Z,100688.43
2018-09-17T03:43:37.730Z,100697.83
2018-09-17T03:46:06.398Z,100697.47
2018-09-17T03:48:35.775Z,100701.03
2018-09-17T03:51:05.202Z,100691.35
2018-09-17T03:53:34.038Z,100689.70
2018-09-17T03:56:02.515Z,100690.64
2018-09-17T03:58:31.218Z,100694.11
2018-09-17T04:01:00.471Z,100691.16
2018-09-17T04:03:28.862Z,100688.93
2018-09-17T04:05:57.386Z,100684.04
2018-09-17T04:08:25.907Z,100687.47
2018-09-17T04:10:54.323Z,100685.98
2018-09-17T04:13:22.839Z,100685.91
2018-09-17T04:15:51.598Z,100692.69
2018-09-17T04:18:20.108Z,100696.98
2018-09-17T04:20:48.759Z,100700.23
2018-09-17T04:23:24.314Z,100699.64
2018-09-17T04:25:53.049Z,100693.94
2018-09-17T04:28:21.557Z,100694.75
2018-09-17T04:30:50.046Z,100700.65
2018-09-17T04:33:18.690Z,100701.91
2018-09-17T04:35:47.159Z,100705.92
2018-09-17T04:38:15.590Z,100710.12
2018-09-17T04:40:44.030Z,100711.98
2018-09-17T04:43:12.539Z,100713.24
2018-09-17T04:45:41.044Z,100717.16
2018-09-17T04:48:09.654Z,100726.71
2018-09-17T04:50:38.083Z,100722.77
2018-09-17T04:53:06.509Z,100723.09
2018-09-17T04:55:35.151Z,100717.59
2018-09-17T04:58:03.691Z,100721.66
2018-09-17T05:00:32.162Z,100725.05
2018-09-17T05:03:00.939Z,100721.78
2018-09-17T05:05:29.494Z,100725.67
2018-09-17T05:07:58.214Z,100731.04
2018-09-17T05:10:26.715Z,100736.20
2018-09-17T05:12:55.165Z,100729.69
2018-09-17T05:15:23.674Z,100727.79
2018-09-17T05:17:52.306Z,100727.19
2018-09-17T05:20:20.774Z,100716.36
2018-09-17T05:22:49.386Z,100720.00
2018-09-17T05:25:17.927Z,100726.55
2018-09-17T05:27:46.404Z,100731.53
2018-09-17T05:30:14.910Z,100726.97
2018-09-17T05:32:43.587Z,100735.03
2018-09-17T05:35:12.174Z,100737.82
2018-09-17T05:37:40.645Z,100735.75
2018-09-17T05:40:09.178Z,100737.78
2018-09-17T05:42:37.583Z,100740.75
2018-09-17T05:45:06.403Z,100748.69
2018-09-17T05:47:35.187Z,100742.91
2018-09-17T05:50:03.611Z,100737.47
2018-09-17T05:52:32.078Z,100741.42
2018-09-17T05:55:00.842Z,100742.02
2018-09-17T05:57:29.300Z,100748.64
2018-09-17T05:59:57.778Z,100748.98
2018-09-17T06:02:26.302Z,100752.29
2018-09-17T06:04:54.862Z,100744.65
2018-09-17T06:07:23.278Z,100748.98
2018-09-17T06:09:52.112Z,100749.31
2018-09-17T06:12:20.667Z,100748.95
2018-09-17T06:14:49.171Z,100745.09
2018-09-17T06:17:17.776Z,100747.92
2018-09-17T06:19:46.266Z,100752.66
2018-09-17T06:22:14.718Z,100744.25
2018-09-17T06:24:43.287Z,100745.99
2018-09-17T06:27:11.745Z,100742.83
2018-09-17T06:29:40.179Z,100741.56
2018-09-17T06:32:08.867Z,100741.08
2018-09-17T06:34:37.296Z,100743.64
2018-09-17T06:37:05.808Z,100746.30
2018-09-17T06:39:34.553Z,100746.56
2018-09-17T06:42:02.978Z,100745.89
2018-09-17T06:44:31.398Z,100750.79
2018-09-17T06:46:59.930Z,100743.58
2018-09-17T06:49:28.353Z,100753.78
2018-09-17T06:51:56.831Z,100751.72
2018-09-17T06:54:25.499Z,100746.43
2018-09-17T06:56:53.919Z,100757.05
2018-09-17T06:59:22.356Z,100752.39
2018-09-17T07:01:51.250Z,100743.39
2018-09-17T07:04:19.699Z,100735.55
2018-09-17T07:06:48.251Z,100732.17
2018-09-17T07:09:17.399Z,100728.47
2018-09-17T07:11:45.930Z,100736.48
2018-09-17T07:14:14.429Z,100729.28
2018-09-17T07:16:43.210Z,100735.53
2018-09-17T07:19:11.719Z,100737.21
2018-09-17T07:21:40.154Z,100733.55
2018-09-17T07:24:08.674Z,100729.69
2018-09-17T07:26:37.150Z,100739.66
2018-09-17T07:29:05.813Z,100736.11
2018-09-17T07:31:34.270Z,100732.48
2018-09-17T07:34:02.858Z,100731.76
2018-09-17T07:36:31.422Z,100739.59
2018-09-17T07:38:59.950Z,100737.55
2018-09-17T07:41:28.462Z,100738.56
2018-09-17T07:43:56.955Z,100740.59
2018-09-17T07:46:25.499Z,100734.52
2018-09-17T07:48:53.921Z,100736.37
2018-09-17T07:51:22.326Z,100737.75
2018-09-17T07:53:51.314Z,100734.81
2018-09-17T07:56:19.879Z,100731.80
2018-09-17T07:58:48.348Z,100727.09
2018-09-17T08:01:16.903Z,100722.39
2018-09-17T08:03:45.326Z,100723.45
2018-09-17T08:06:13.959Z,100723.52
2018-09-17T08:08:42.690Z,100728.98
2018-09-17T08:11:11.148Z,100723.58
2018-09-17T08:13:39.612Z,100719.52
2018-09-17T08:16:08.278Z,100730.95
2018-09-17T08:18:36.863Z,100727.75
2018-09-17T08:21:05.327Z,100726.02
2018-09-17T08:23:33.966Z,100722.38
2018-09-17T08:26:02.495Z,100721.84
2018-09-17T08:28:30.998Z,100718.13
2018-09-17T08:30:59.484Z,100721.81
2018-09-17T08:33:28.079Z,100722.38
2018-09-17T08:35:56.683Z,100727.52
2018-09-17T08:38:25.737Z,100732.27
2018-09-17T08:40:54.676Z,100731.31
2018-09-17T08:43:23.118Z,100734.78
2018-09-17T08:45:51.561Z,100733.97
2018-09-17T08:48:20.067Z,100730.67
2018-09-17T08:50:48.520Z,100734.52
2018-09-17T08:53:17.149Z,100735.27
2018-09-17T08:55:46.759Z,100734.36
2018-09-17T08:58:20.685Z,100726.05
2018-09-17T09:00:54.438Z,100726.45
2018-09-17T09:03:26.980Z,100720.60
2018-09-17T09:06:00.657Z,100724.33
2018-09-17T09:08:29.147Z,100723.56
2018-09-17T09:11:02.910Z,100729.52
2018-09-17T09:13:34.434Z,100724.05
2018-09-17T09:16:02.935Z,100714.77
2018-09-17T09:18:31.406Z,100700.37
2018-09-17T09:20:59.891Z,100707.96
2018-09-17T09:23:28.363Z,100708.70
2018-09-17T09:25:56.870Z,100702.48
2018-09-17T09:28:25.760Z,100699.70
2018-09-17T09:30:54.258Z,100695.07
2018-09-17T09:33:22.675Z,100692.75
2018-09-17T09:35:51.164Z,100691.13
2018-09-17T09:38:19.675Z,100691.94
2018-09-17T09:40:48.101Z,100691.69
2018-09-17T09:43:16.658Z,100690.38
2018-09-17T09:45:45.218Z,100682.20
2018-09-17T09:48:13.699Z,100684.36
2018-09-17T09:50:42.161Z,100681.49
2018-09-17T09:53:10.619Z,100676.67
2018-09-17T09:55:39.083Z,100672.84
2018-09-17T09:58:07.865Z,100671.61
2018-09-17T10:01:39.311Z,100669.27
2018-09-17T10:04:13.322Z,100665.94
2018-09-17T10:06:41.815Z,100669.25
2018-09-17T10:09:15.907Z,100665.02
2018-09-17T10:11:49.707Z,100665.00
2018-09-17T10:14:23.734Z,100655.07
2018-09-17T10:16:57.399Z,100651.43
2018-09-17T10:19:26.281Z,100646.05
2018-09-17T10:21:54.651Z,100651.66
2018-09-17T10:24:23.234Z,100645.00
2018-09-17T10:26:51.849Z,100640.34
2018-09-17T10:29:20.409Z,100631.84
2018-09-17T10:31:48.875Z,100630.48
2018-09-17T10:34:17.402Z,100627.30
2018-09-17T10:36:45.875Z,100619.87
2018-09-17T10:39:14.771Z,100623.95
2018-09-17T10:41:43.270Z,100614.88
2018-09-17T10:44:11.730Z,100614.02
2018-09-17T10:46:40.203Z,100621.73
2018-09-17T10:49:09.074Z,100612.64
2018-09-17T10:51:37.530Z,100616.83
2018-09-17T10:54:06.006Z,100619.22
2018-09-17T10:56:34.562Z,100619.09
2018-09-17T10:59:03.118Z,100614.64
2018-09-17T11:01:31.590Z,100610.37
2018-09-17T11:04:00.147Z,100605.64
2018-09-17T11:06:28.634Z,100593.78
2018-09-17T11:08:57.083Z,100591.61
2018-09-17T11:11:25.547Z,100585.64
2018-09-17T11:13:54.119Z,100584.91
2018-09-17T11:16:22.552Z,100574.02
2018-09-17T11:18:51.355Z,100573.92
2018-09-17T11:21:19.879Z,100567.24
2018-09-17T11:23:48.355Z,100568.31
2018-09-17T11:26:17.108Z,100563.61
2018-09-17T11:28:45.926Z,100557.12
2018-09-17T11:31:14.601Z,100557.72
2018-09-17T11:33:43.087Z,100556.13
2018-09-17T11:36:11.606Z,100555.17
2018-09-17T11:38:40.143Z,100546.42
2018-09-17T11:41:08.638Z,100549.81
2018-09-17T11:43:37.084Z,100558.14
2018-09-17T11:46:05.734Z,100541.33
2018-09-17T11:48:34.243Z,100547.25
2018-09-17T11:51:03.171Z,100536.38
2018-09-17T11:53:31.973Z,100538.80
2018-09-17T11:56:00.598Z,100533.91
2018-09-17T11:58:29.026Z,100528.17
2018-09-17T12:01:02.899Z,100525.44
2018-09-17T12:03:36.564Z,100521.00
2018-09-17T12:06:05.954Z,100518.78
2018-09-17T12:08:34.570Z,100514.95
2018-09-17T12:11:03.046Z,100504.95
2018-09-17T12:13:31.517Z,100506.75
2018-09-17T12:16:00.868Z,100507.58
2018-09-17T12:18:29.274Z,100503.38
2018-09-17T12:20:57.807Z,100496.09
2018-09-17T12:23:26.227Z,100497.59
2018-09-17T12:25:54.598Z,100489.23
2018-09-17T12:28:23.223Z,100490.74
2018-09-17T12:30:51.733Z,100492.11
2018-09-17T12:33:20.159Z,100487.13
2018-09-17T12:35:48.626Z,100484.33
2018-09-17T12:38:17.095Z,100482.95
2018-09-17T12:40:45.590Z,100484.09
2018-09-17T12:43:14.259Z,100480.78
2018-09-17T12:45:42.862Z,100479.19
2018-09-17T12:48:11.374Z,100479.97
2018-09-17T12:50:40.147Z,100470.13
2018-09-17T12:53:08.682Z,100467.46
2018-09-17T12:55:37.163Z,100471.17
2018-09-17T12:58:06.141Z,100461.11
2018-09-17T13:00:34.550Z,100462.20
2018-09-17T13:03:03.043Z,100456.64
2018-09-17T13:05:31.610Z,100453.36
2018-09-17T13:08:00.054Z,100462.69
2018-09-17T13:10:28.654Z,100448.14
2018-09-17T13:12:57.328Z,100447.53
2018-09-17T13:15:25.887Z,100448.84
2018-09-17T13:17:54.314Z,100444.60
2018-09-17T13:20:22.890Z,100440.28
2018-09-17T13:22:51.346Z,100439.34
2018-09-17T13:25:19.918Z,100438.28
2018-09-17T13:27:48.691Z,100431.81
2018-09-17T13:30:17.196Z,100425.12
2018-09-17T13:32:45.735Z,100423.28
2018-09-17T13:35:14.207Z,100412.16
2018-09-17T13:37:42.683Z,100412.30
2018-09-17T13:40:11.103Z,100420.02
2018-09-17T13:42:39.683Z,100411.92
2018-09-17T13:45:08.093Z,100409.34
2018-09-17T13:47:36.909Z,100414.86
2018-09-17T13:50:06.296Z,100405.25
2018-09-17T13:52:37.077Z,100401.52
2018-09-17T13:55:06.114Z,100401.23
2018-09-17T13:57:34.521Z,100393.54
2018-09-17T14:00:02.973Z,100396.34
2018-09-17T14:02:31.410Z,100388.94
2018-09-17T14:05:06.560Z,100386.27
2018-09-17T14:07:40.087Z,100386.94
2018-09-17T14:10:11.612Z,100377.87
2018-09-17T14:12:40.951Z,100379.56
2018-09-17T14:15:09.539Z,100383.78
2018-09-17T14:17:38.174Z,100385.27
2018-09-17T14:20:06.851Z,100372.18
2018-09-17T14:22:35.291Z,100371.83
2018-09-17T14:25:03.807Z,100368.54
2018-09-17T14:27:32.347Z,100362.41
2018-09-17T14:30:00.843Z,100351.94
2018-09-17T14:32:34.675Z,100355.94
2018-09-17T14:35:03.155Z,100350.22
2018-09-17T14:37:32.209Z,100349.33
2018-09-17T14:40:00.638Z,100345.06
2018-09-17T14:42:29.054Z,100338.45
2018-09-17T14:44:57.474Z,100341.75
2018-09-17T14:47:26.039Z,100336.02
2018-09-17T14:49:54.486Z,100333.91
2018-09-17T14:52:22.999Z,100335.66
2018-09-17T14:54:51.625Z,100327.91
2018-09-17T14:57:20.156Z,100328.30
2018-09-17T14:59:48.735Z,100320.92
2018-09-17T15:02:17.326Z,100320.30
2018-09-17T15:04:45.783Z,100315.66
2018-09-17T15:07:14.235Z,100307.91
2018-09-17T15:09:42.690Z,100304.94
2018-09-17T15:12:11.195Z,100312.11
2018-09-17T15:14:39.735Z,100304.42
2018-09-17T15:17:08.532Z,100308.64
2018-09-17T15:19:37.003Z,100303.96
2018-09-17T15:22:05.536Z,100298.14
2018-09-17T15:24:34.050Z,100297.37
2018-09-17T15:27:02.514Z,100301.39
2018-09-17T15:29:30.928Z,100300.95
2018-09-17T15:31:59.439Z,100293.55
2018-09-17T15:34:28.817Z,100294.47
2018-09-17T15:36:57.482Z,100296.59
2018-09-17T15:39:26.359Z,100292.95
2018-09-17T15:41:55.022Z,100289.09
2018-09-17T15:44:23.498Z,100296.73
2018-09-17T15:46:52.375Z,100294.14
2018-09-17T15:49:20.691Z,100290.76
2018-09-17T15:51:49.223Z,100289.55
2018-09-17T15:54:18.291Z,100287.28
2018-09-17T15:56:47.019Z,100292.62
2018-09-17T15:59:15.510Z,100285.61
2018-09-17T16:01:44.139Z,100289.14
2018-09-17T16:04:12.671Z,100282.03
2018-09-17T16:06:41.055Z,100279.74
2018-09-17T16:09:09.829Z,100277.08
2018-09-17T16:11:38.399Z,100279.20
2018-09-17T16:14:07.092Z,100273.55
2018-09-17T16:16:35.711Z,100275.31
2018-09-17T16:19:04.220Z,100267.28
2018-09-17T16:21:32.974Z,100274.63
2018-09-17T16:24:01.520Z,100273.28
2018-09-17T16:26:29.978Z,100277.61
2018-09-17T16:28:58.668Z,100270.55
2018-09-17T16:31:27.310Z,100270.14
2018-09-17T16:33:55.737Z,100268.58
2018-09-17T16:36:24.243Z,100271.37
2018-09-17T16:38:52.763Z,100264.70
2018-09-17T16:41:21.291Z,100268.05
2018-09-17T16:43:49.846Z,100263.91
2018-09-17T16:46:18.725Z,100267.37
2018-09-17T16:48:47.523Z,100262.78
2018-09-17T16:51:15.964Z,100264.14
2018-09-17T16:53:44.749Z,100261.77
2018-09-17T16:56:13.146Z,100256.34
2018-09-17T16:58:41.612Z,100258.61
2018-09-17T17:01:10.275Z,100262.05
2018-09-17T17:03:38.710Z,100261.13
2018-09-17T17:06:07.184Z,100254.33
2018-09-17T17:08:35.663Z,100259.05
2018-09-17T17:11:04.217Z,100259.97
2018-09-17T17:13:32.711Z,100262.46
2018-09-17T17:16:01.331Z,100261.30
2018-09-17T17:18:29.815Z,100257.22
2018-09-17T17:20:58.348Z,100256.64
2018-09-17T17:23:26.988Z,100255.33
2018-09-17T17:25:55.535Z,100257.78
2018-09-17T17:28:24.156Z,100253.97
2018-09-17T17:30:53.249Z,100253.63
2018-09-17T17:33:21.897Z,100258.20
2018-09-17T17:35:50.358Z,100255.99
2018-09-17T17:38:19.111Z,100257.55
2018-09-17T17:40:47.895Z,100258.86
2018-09-17T17:43:16.363Z,100255.53
2018-09-17T17:45:45.014Z,100263.26
2018-09-17T17:48:13.518Z,100258.17
2018-09-17T17:50:42.027Z,100257.44
2018-09-17T17:53:10.573Z,100256.25
2018-09-17T17:55:39.032Z,100255.34
2018-09-17T17:58:07.590Z,100258.77
2018-09-17T18:00:36.094Z,100259.88
2018-09-17T18:03:04.588Z,100256.50
2018-09-17T18:05:33.233Z,100261.41
2018-09-17T18:08:02.014Z,100262.65
2018-09-17T18:10:30.602Z,100265.19
2018-09-17T18:12:59.148Z,100259.59
2018-09-17T18:15:27.968Z,100263.08
2018-09-17T18:17:56.840Z,100260.02
2018-09-17T18:20:25.417Z,100259.57
2018-09-17T18:22:54.450Z,100260.55
2018-09-17T18:25:23.504Z,100263.55
2018-09-17T18:27:52.487Z,100264.95
2018-09-17T18:30:21.208Z,100268.63
2018-09-17T18:32:49.988Z,100269.58
2018-09-17T18:35:18.538Z,100272.71
2018-09-17T18:37:47.031Z,100276.03
2018-09-17T18:40:15.548Z,100269.95
2018-09-17T18:42:44.546Z,100265.80
2018-09-17T18:45:13.561Z,100275.84
2018-09-17T18:47:43.139Z,100278.78
2018-09-17T18:50:12.072Z,100279.09
2018-09-17T18:52:40.936Z,100277.15
2018-09-17T18:55:10.608Z,100282.88
2018-09-17T18:57:39.471Z,100281.59
2018-09-17T19:00:09.532Z,100281.00
2018-09-17T19:02:39.187Z,100285.96
2018-09-17T19:05:08.294Z,100282.95
2018-09-17T19:07:37.353Z,100282.80
2018-09-17T19:10:06.638Z,100284.91
2018-09-17T19:12:35.792Z,100287.87
2018-09-17T19:15:09.861Z,100286.20
2018-09-17T19:17:40.245Z,100284.69
2018-09-17T19:20:10.523Z,100283.09
2018-09-17T19:22:46.400Z,100288.84
2018-09-17T19:25:17.911Z,100285.08
2018-09-17T19:27:51.950Z,100287.40
2018-09-17T19:30:21.171Z,100283.11
2018-09-17T19:32:50.204Z,100277.33
2018-09-17T19:35:19.260Z,100274.58
2018-09-17T19:38:50.974Z,100273.31
2018-09-17T19:41:20.184Z,100272.84
2018-09-17T19:43:49.177Z,100267.86
2018-09-17T19:46:19.612Z,100280.13
2018-09-17T19:48:49.225Z,100277.06
2018-09-17T19:51:23.684Z,100271.36
2018-09-17T19:53:52.809Z,100271.75
2018-09-17T19:56:21.834Z,100278.42
2018-09-17T19:58:56.715Z,100273.56
2018-09-17T20:01:27.251Z,100274.23
2018-09-17T20:03:59.304Z,100273.17
2018-09-17T20:06:28.608Z,100277.50
2018-09-17T20:08:58.340Z,100273.97
2018-09-17T20:11:27.595Z,100275.61
2018-09-17T20:13:57.288Z,100276.51
2018-09-17T20:16:26.205Z,100278.92
2018-09-17T20:18:55.236Z,100277.85
2018-09-17T20:21:23.995Z,100280.39
2018-09-17T20:23:52.623Z,100278.63
2018-09-17T20:26:21.227Z,100283.12
2018-09-17T20:28:49.757Z,100268.18
2018-09-17T20:31:18.333Z,100274.84
2018-09-17T20:33:47.027Z,100280.14
2018-09-17T20:36:15.512Z,100277.03
2018-09-17T20:38:44.165Z,100277.50
2018-09-17T20:41:12.599Z,100279.08
2018-09-17T20:43:41.150Z,100276.70
2018-09-17T20:46:09.655Z,100278.02
2018-09-17T20:48:38.157Z,100280.05
2018-09-17T20:51:07.578Z,100282.59
2018-09-17T20:53:36.110Z,100279.58
2018-09-17T20:56:04.839Z,100283.70
2018-09-17T20:58:33.348Z,100279.58
2018-09-17T21:01:01.831Z,100272.64
2018-09-17T21:03:30.339Z,100274.67
2018-09-17T21:05:58.815Z,100271.22
2018-09-17T21:08:27.247Z,100272.62
2018-09-17T21:10:55.692Z,100266.25
2018-09-17T21:13:24.181Z,100264.75
2018-09-17T21:15:52.598Z,100269.73
2018-09-17T21:18:21.190Z,100262.78
2018-09-17T21:20:49.635Z,100258.59
2018-09-17T21:23:18.095Z,100255.56
2018-09-17T21:25:47.280Z,100258.91
2018-09-17T21:28:15.843Z,100260.80
2018-09-17T21:30:44.394Z,100260.82
2018-09-17T21:33:12.814Z,100260.25
2018-09-17T21:35:41.333Z,100265.91
2018-09-17T21:38:09.811Z,100262.27
2018-09-17T21:40:38.450Z,100272.92
2018-09-17T21:43:06.944Z,100266.86
2018-09-17T21:45:35.411Z,100270.63
2018-09-17T21:48:03.823Z,100268.27
2018-09-17T21:50:32.298Z,100265.72
2018-09-17T21:53:00.793Z,100262.62
2018-09-17T21:55:29.607Z,100260.78
2018-09-17T21:57:58.131Z,100258.95
2018-09-17T22:00:30.602Z,100264.22
2018-09-17T22:02:59.058Z,100264.87
2018-09-17T22:05:27.559Z,100264.14
2018-09-17T22:07:55.983Z,100265.64
2018-09-17T22:10:24.397Z,100268.48
2018-09-17T22:12:52.813Z,100266.34
2018-09-17T22:15:21.727Z,100271.48
2018-09-17T22:17:50.149Z,100273.21
2018-09-17T22:20:18.636Z,100274.80
2018-09-17T22:22:47.283Z,100271.98
2018-09-17T22:25:15.810Z,100270.73
2018-09-17T22:27:44.431Z,100269.81
2018-09-17T22:30:13.195Z,100265.25
2018-09-17T22:32:41.709Z,100266.66
2018-09-17T22:35:10.176Z,100267.69
2018-09-17T22:37:38.566Z,100267.07
2018-09-17T22:40:07.323Z,100264.31
2018-09-17T22:42:36.468Z,100258.59
2018-09-17T22:45:05.006Z,100259.91
2018-09-17T22:47:33.471Z,100265.08
2018-09-17T22:50:01.887Z,100262.86
2018-09-17T22:52:30.398Z,100263.10
2018-09-17T22:54:58.855Z,100265.20
2018-09-17T22:57:27.356Z,100264.58
2018-09-17T22:59:56.018Z,100259.44
2018-09-17T23:02:24.563Z,100262.83
2018-09-17T23:04:53.190Z,100260.97
2018-09-17T23:07:21.815Z,100260.86
2018-09-17T23:09:50.214Z,100261.27
2018-09-17T23:12:18.726Z,100256.58
2018-09-17T23:14:47.318Z,100257.30
2018-09-17T23:17:15.812Z,100260.34
2018-09-17T23:19:44.435Z,100256.86
2018-09-17T23:22:13.201Z,100255.16
2018-09-17T23:24:41.722Z,100259.84
2018-09-17T23:27:10.238Z,100260.73
2018-09-17T23:29:38.742Z,100254.63
2018-09-17T23:32:07.591Z,100256.70
2018-09-17T23:34:36.007Z,100258.86
2018-09-17T23:37:04.674Z,100250.39
2018-09-17T23:39:33.379Z,100246.20
2018-09-17T23:42:01.799Z,100242.73
2018-09-17T23:44:30.575Z,100250.95
2018-09-17T23:46:59.151Z,100248.80
2018-09-17T23:49:27.559Z,100248.41
2018-09-17T23:51:56.135Z,100253.15
2018-09-17T23:54:24.542Z,100249.78
2018-09-17T23:56:53.058Z,100254.26
2018-09-17T23:59:21.582Z,100246.84
